Tiempo atmosférico en la estación meteorológica de Maspalomas, C. Insular Turismo, Las Palmas (45 m.)



Fecha
DESCASC
Temp. máxima en grados centígrados (hora)
DESCASC
Temp. mínima en grados centígrados (hora)
DESCASC
Temp. media en grados centígrados
DESCASC
Racha de viento máxima en m/sg (hora)
DESCASC
Velocidad máxima media en intervalos de 10 minutos(hora)
DESCASC
Precipitaciones diarias en mm
DESCASC
Precipitaciones de 00:00 a 06:00 en mm
DESCASC
Precipitaciones de 06:00 a 12:00 en mm
DESCASC
Precipitaciones de 12:00 a 18:00 en mm
DESCASC
Precipitaciones de 18:00 a 24:00 en mm
DESCASC
17-10-2019 24.6 (15:00) 21.1 (03:30) 22.9 14.17 (12:20) 6.11 (13:40) 0 0 0 0 0
16-10-2019 24.1 (16:00) 21.1 (04:40) 22.6 10.28 (15:20) 4.72 (15:20) 0 0 0 0 0
15-10-2019 24.9 (16:10) 20.1 (07:30) 22.5 13.33 (14:10) 6.11 (14:30) 0 0 0 0 0
14-10-2019 26.5 (16:30) 19.3 (07:50) 22.9 9.72 (15:00) 4.44 (14:20) 0 0 0 0 0
13-10-2019 26.3 (14:50) 21.1 (00:00) 23.7 7.22 (13:20) 3.89 (13:20) 0 0 0 0 0
12-10-2019 24.4 (11:10) 19.8 (00:00) 22.1 7.78 (12:40) 4.17 (14:40) 0 0 0 0 0
11-10-2019 25.8 (12:50) 20 (00:00) 22.9 7.5 (14:20) 4.17 (14:10) 0 0 0 0 0
10-10-2019 26 (12:40) 19.9 (00:00) 22.9 10.28 (18:20) 5.83 (18:20) 0 0 0 0 0
09-10-2019 26.8 (16:10) 20 (00:00) 23.4 7.78 (12:20) 4.17 (14:00) 0 0 0 0 0
08-10-2019 27 (15:50) 20.2 (00:00) 23.6 8.06 (16:30) 5 (16:20) 0 0 0 0 0
07-10-2019 26.7 (15:00) 20.4 (00:00) 23.6 6.67 (12:30) 4.17 (15:10) 0 0 0 0 0
06-10-2019 27.1 (17:00) 20.9 (00:00) 24 7.78 (14:40) 4.72 (14:40) 0 0 0 0 0
05-10-2019 28 (15:10) 21.3 (00:00) 24.6 9.72 (13:20) 5.28 (13:20) 0 0 0 0 0
04-10-2019 29.2 (15:10) 21.6 (00:00) 25.4 7.78 (15:30) 5.28 (15:30) 0 0 0 0 0
03-10-2019 29 (14:20) 21.5 (00:00) 25.3 5.83 (14:40) 3.61 (14:40) 0 0 0 0 0
02-10-2019 29.1 (15:30) 21.4 (00:00) 25.3 9.72 (14:00) 5.83 (14:20) 0 0 0 0 0
01-10-2019 30.6 (16:30) 21.5 (00:00) 26.1 5.83 (15:30) 3.89 (15:20) 0 0 0 0 0
30-09-2019 29.5 (15:20) 21.3 (00:00) 25.4 6.39 (19:20) 4.17 (18:20) 0 0 0 0 0
29-09-2019 27.6 (15:10) 20.6 (00:00) 24.1 6.11 (13:20) 3.33 (14:10) 0 0 0 0 0
28-09-2019 27.1 (14:30) 20.5 (00:00) 23.8 7.5 (16:30) 5 (16:30) 0 0 0 0 0
27-09-2019 27.2 (15:10) 20.9 (00:00) 24.1 7.78 (15:30) 4.17 (14:00) 0 0 0 0 0
26-09-2019 28.3 (15:50) 20.7 (00:00) 24.5 7.78 (16:40) 4.72 (16:30) 0 0 0 0 0
25-09-2019 27.4 (15:50) 20.3 (00:00) 23.8 7.5 (15:30) 4.72 (16:20) 0 0 0 0 0
24-09-2019 27.8 (15:40) 20.8 (00:00) 24.3 9.72 (16:20) 5 (16:40) 0 0 0 0 0
23-09-2019 27.5 (17:10) 22.3 (00:00) 24.9 9.17 (15:20) 5 (14:10) 0 0 0 0 0
22-09-2019 26.8 (13:30) 21.3 (00:00) 24 6.39 (17:00) 3.89 (17:40) 0 0 0 0 0
21-09-2019 27 (16:30) 20.4 (00:00) 23.7 5.83 (12:30) 3.61 (12:30) 0 0 0 0 0
20-09-2019 27.8 (16:10) 20.3 (00:00) 24 10.28 (13:00) 5.56 (12:40) 0 0 0 0 0
19-09-2019 27.7 (15:40) 20.6 (00:00) 24.2 8.06 (16:20) 4.17 (16:20) 0 0 0 0 0

Gráficas

Temp. máximas Temp. mínimas Temp. medias Precipitaciones Rachas de viento máximas Velocidades máximas media en intervalos de 10 minutos

Datos horarios

Fecha y hora oficial Temperatura (ºC) Velocidad del viento (km/h) Dirección del viento Racha (km/h) Dirección de racha Precipitación (mm) Presión (hPa) Tendencia (hPa) Humedad (%)
2019-10-18 23:00:00 21.6 4 Oeste 8 Oeste 0 -- -- 72
2019-10-18 22:00:00 22 4 Sudeste 8 Sudeste 0 -- -- 70
2019-10-18 21:00:00 22.4 4 Sur 11 Oeste 0 -- -- 69
2019-10-18 20:00:00 23 6 Oeste 12 Oeste 0 -- -- 67
2019-10-18 19:00:00 23.7 8 Oeste 14 Oeste 0 -- -- 65
2019-10-18 18:00:00 24.7 9 Oeste 23 Sudoeste 0 -- -- 62
2019-10-18 17:00:00 25.1 15 Sudoeste 27 Sur 0 -- -- 62
2019-10-18 16:00:00 25.5 12 Sur 24 Sudoeste 0 -- -- 59
2019-10-18 15:00:00 25.1 15 Sudoeste 26 Sudoeste 0 -- -- 59
2019-10-18 14:00:00 25.1 13 Oeste 25 Oeste 0 -- -- 56
2019-10-18 13:00:00 24.9 9 Sudoeste 17 Oeste 0 -- -- 57
2019-10-18 12:00:00 24.7 8 Sudoeste 15 Sudoeste 0 -- -- 57
2019-10-18 11:00:00 23.5 8 Sudeste 13 Sudeste 0 -- -- 62
2019-10-18 10:00:00 22.9 3 Este 6 Este 0 -- -- 63
2019-10-18 09:00:00 20.2 5 Norte 13 Noroeste 0 -- -- 70
2019-10-18 08:00:00 19.8 6 Noroeste 13 Norte 0 -- -- 70
2019-10-18 07:00:00 19.6 9 Norte 13 Norte 0 -- -- 71
2019-10-18 06:00:00 19.6 8 Norte 13 Norte 0 -- -- 70
2019-10-18 05:00:00 19.8 7 Noroeste 10 Noroeste 0 -- -- 70
2019-10-18 04:00:00 20 6 Norte 10 Norte 0 -- -- 69
2019-10-18 03:00:00 20.3 5 Norte 8 Norte 0 -- -- 68
2019-10-18 02:00:00 20.8 4 Noroeste 5 Noroeste 0 -- -- 64
2019-10-18 01:00:00 21.2 2 Nordeste 12 Este 0 -- -- 62
2019-10-18 00:00:00 21.3 3 Nordeste 10 Oeste 0 -- -- 62
2019-10-17 23:00:00 21.9 4 Este 15 Nordeste 0 -- -- 61
2019-10-17 22:00:00 22.3 4 Oeste 16 Nordeste 0 -- -- 61
2019-10-17 21:00:00 22.7 8 Este 21 Este 0 -- -- 52
2019-10-17 20:00:00 23.1 6 Nordeste 17 Este 0 -- -- 52
2019-10-17 19:00:00 23.7 9 Nordeste 31 Este 0 -- -- 50
2019-10-17 18:00:00 23.8 10 Este 29 Este 0 -- -- 55
2019-10-17 17:00:00 23.7 13 Este 34 Este 0 -- -- 59
2019-10-17 16:00:00 23.8 11 Sudeste 38 Este 0 -- -- 59
2019-10-17 15:00:00 24.6 14 Nordeste 48 Este 0 -- -- 56
2019-10-17 14:00:00 24.2 18 Este 43 Este 0 -- -- 58
2019-10-17 13:00:00 24.1 21 Este 51 Este 0 -- -- 59
2019-10-17 12:00:00 24.3 15 Este 37 Este 0 -- -- 57
2019-10-17 11:00:00 23.8 14 Este 25 Nordeste 0 -- -- 59
2019-10-17 10:00:00 22.6 9 Este 24 Nordeste 0 -- -- 64
2019-10-17 09:00:00 21.4 8 Este 21 Nordeste 0 -- -- 68
2019-10-17 08:00:00 21.2 8 Este 15 Nordeste 0 -- -- 68
2019-10-17 07:00:00 21.2 4 Este 9 Este 0 -- -- 67
2019-10-17 06:00:00 21.3 5 Nordeste 13 Este 0 -- -- 68
2019-10-17 05:00:00 21.3 5 Este 18 Nordeste 0 -- -- 69
2019-10-17 04:00:00 21.2 6 Nordeste 20 Nordeste 0 -- -- 71
2019-10-17 03:00:00 21.3 8 Nordeste 22 Este 0 -- -- 71
2019-10-17 02:00:00 21.4 9 Este 22 Este 0 -- -- 71
2019-10-17 01:00:00 21.7 10 Nordeste 26 Nordeste 0 -- -- 72
2019-10-17 00:00:00 22 10 Nordeste 31 Nordeste 0 -- -- 69
2019-10-16 23:00:00 22.1 14 Nordeste 35 Este 0 -- -- 69
2019-10-16 22:00:00 22 10 Este 25 Este 0 -- -- 71
2019-10-16 21:00:00 22.4 9 Este 21 Nordeste 0 -- -- 68
2019-10-16 20:00:00 23 8 Nordeste 21 Este 0 -- -- 55
2019-10-16 19:00:00 23.2 12 Este 23 Este 0 -- -- 61
2019-10-16 18:00:00 23.3 13 Este 29 Nordeste 0 -- -- 62
2019-10-16 17:00:00 23.7 14 Este 36 Este 0 -- -- 61
2019-10-16 16:00:00 24.1 15 Este 37 Nordeste 0 -- -- 62
2019-10-16 15:00:00 23.4 14 Nordeste 34 Este 0 -- -- 67
2019-10-16 14:00:00 22.9 15 Este 33 Nordeste 0 -- -- 69
2019-10-16 13:00:00 22.8 12 Este 31 Nordeste 0 -- -- 69
2019-10-16 12:00:00 22.8 11 Este 30 Sudeste 0 -- -- 71
2019-10-16 11:00:00 23.4 9 Nordeste 24 Este 0 -- -- 64
2019-10-16 10:00:00 22.4 11 Nordeste 25 Nordeste 0 -- -- 69
2019-10-16 09:00:00 21.8 6 Nordeste 14 Nordeste 0 -- -- 66
2019-10-16 08:00:00 21.3 6 Nordeste 17 Este 0 -- -- 67
2019-10-16 07:00:00 21.1 7 Nordeste 19 Nordeste 0 -- -- 67
2019-10-16 06:00:00 21.1 9 Nordeste 22 Este 0 -- -- 71
2019-10-16 05:00:00 21.1 9 Nordeste 21 Este 0 -- -- 73
2019-10-16 04:00:00 21.2 8 Este 21 Este 0 -- -- 73
2019-10-16 03:00:00 21.4 10 Este 21 Nordeste 0 -- -- 72
2019-10-16 02:00:00 21.5 7 Este 24 Sudeste 0 -- -- 72
2019-10-16 01:00:00 21.7 9 Nordeste 22 Este 0 -- -- 70
2019-10-16 00:00:00 21.8 10 Nordeste 26 Nordeste 0 -- -- 68
2019-10-15 23:00:00 22 10 Este 32 Nordeste 0 -- -- 66
2019-10-15 22:00:00 22 14 Nordeste 27 Nordeste 0 -- -- 66
2019-10-15 21:00:00 22.2 10 Nordeste 28 Este 0 -- -- 64
2019-10-15 20:00:00 22.4 13 Este 34 Nordeste 0 -- -- 61
2019-10-15 19:00:00 22.8 15 Este 33 Este 0 -- -- 60
2019-10-15 18:00:00 24 14 Nordeste 34 Este 0 -- -- 56
2019-10-15 17:00:00 24.5 15 Este 35 Este 0 -- -- 58
2019-10-15 16:00:00 24.8 16 Este 38 Este 0 -- -- 59
2019-10-15 15:00:00 24.4 14 Este 48 Este 0 -- -- 64
2019-10-15 14:00:00 23.2 21 Este 42 Este 0 -- -- 69
2019-10-15 13:00:00 23.3 19 Este 39 Este 0 -- -- 69
2019-10-15 12:00:00 23.4 18 Este 35 Este 0 -- -- 69
2019-10-15 11:00:00 23.8 14 Este 29 Este 0 -- -- 60
2019-10-15 10:00:00 22.5 14 Nordeste 30 Nordeste 0 -- -- 65
2019-10-15 09:00:00 21.6 10 Nordeste 25 Nordeste 0 -- -- 69
2019-10-15 08:00:00 21 8 Nordeste 17 Nordeste 0 -- -- 71
2019-10-15 07:00:00 20.8 4 Este 12 Nordeste 0 -- -- 69
2019-10-15 06:00:00 20.3 5 Norte 10 Este 0 -- -- 75
2019-10-15 05:00:00 20.5 4 Sudeste 10 Noroeste 0 -- -- 74
2019-10-15 04:00:00 20.9 4 Noroeste 7 Noroeste 0 -- -- 72
2019-10-15 03:00:00 21.3 4 Nordeste 14 Nordeste 0 -- -- 61
2019-10-15 02:00:00 21.6 7 Este 16 Este 0 -- -- 63
2019-10-15 01:00:00 21.8 4 Nordeste 15 Este 0 -- -- 55
2019-10-15 00:00:00 22.2 4 Este 12 Este 0 -- -- 50
2019-10-14 23:00:00 22.2 5 Nordeste 16 Este 0 -- -- 51
2019-10-14 22:00:00 22.3 4 Nordeste 10 Nordeste 0 -- -- 66
2019-10-14 21:00:00 22.6 4 Sudoeste 12 Sudoeste 0 -- -- 74
2019-10-14 20:00:00 23 6 Oeste 19 Sudoeste 0 -- -- 72
2019-10-14 19:00:00 24 11 Sudoeste 24 Sudoeste 0 -- -- 68
2019-10-14 18:00:00 25.6 14 Sudoeste 22 Oeste 0 -- -- 62
2019-10-14 17:00:00 26 10 Oeste 26 Oeste 0 -- -- 59
2019-10-14 16:00:00 26.2 13 Oeste 27 Oeste 0 -- -- 59
2019-10-14 15:00:00 25.5 14 Este 35 Este 0 -- -- 60
2019-10-14 14:00:00 26.1 13 Oeste 24 Oeste 0 -- -- 58
2019-10-14 13:00:00 25.6 11 Sudoeste 26 Oeste 0 -- -- 57
2019-10-14 12:00:00 25.8 12 Sudoeste 19 Sudoeste 0 -- -- 56
2019-10-14 11:00:00 23.9 6 Oeste 10 Oeste 0 -- -- 58
2019-10-14 10:00:00 22.9 0 Calma 8 Sudeste 0 -- -- 66
2019-10-14 09:00:00 20.4 6 Norte 13 Norte 0 -- -- 66
2019-10-14 08:00:00 19.4 2 Noroeste 9 Norte 0 -- -- 73
2019-10-14 07:00:00 19.7 6 Norte 14 Oeste 0 -- -- 71
2019-10-14 06:00:00 20 6 Noroeste 11 Noroeste 0 -- -- 72
2019-10-14 05:00:00 19.9 4 Norte 7 Norte 0 -- -- 74
2019-10-14 04:00:00 20.3 4 Norte 9 Noroeste 0 -- -- 73
2019-10-14 03:00:00 20.6 4 Noroeste 7 Noroeste 0 -- -- 73
2019-10-14 02:00:00 21 3 Norte 5 Nordeste 0 -- -- 71
2019-10-14 01:00:00 21.4 4 Nordeste 11 Nordeste 0 -- -- 70
2019-10-14 00:00:00 21.7 4 Este 12 Este 0 -- -- 70
2019-10-13 23:00:00 22 5 Este 13 Este 0 -- -- 70
2019-10-13 22:00:00 22.3 8 Este 13 Este 0 -- -- 71
2019-10-13 21:00:00 22.6 5 Sudeste 10 Sudeste 0 -- -- 67
2019-10-13 20:00:00 22.7 7 Sudeste 12 Sudeste 0 -- -- 67
2019-10-13 19:00:00 23.1 7 Sudeste 17 Sur 0 -- -- 65
2019-10-13 18:00:00 25.6 10 Sudoeste 21 Sudoeste 0 -- -- 57
2019-10-13 17:00:00 26 10 Sudoeste 21 Sur 0 -- -- 54
2019-10-13 16:00:00 25.2 13 Sudoeste 25 Sudoeste 0 -- -- 56
2019-10-13 15:00:00 26.3 13 Sudoeste 23 Sudoeste 0 -- -- 51
2019-10-13 14:00:00 25.3 8 Sur 26 Sur 0 -- -- 57
2019-10-13 13:00:00 25.5 9 Sudoeste 23 Sudoeste 0 -- -- 58
2019-10-13 12:00:00 24.5 13 Oeste 22 Sudoeste 0 -- -- 62
2019-10-13 11:00:00 24.5 13 Sudoeste 19 Sur 0 -- -- 61
2019-10-13 10:00:00 23.3 3 Sur 8 Norte 0 -- -- 64
2019-10-13 09:00:00 21.5 2 Norte 6 Norte 0 -- -- 66
2019-10-13 08:00:00 21.1 2 Nordeste 4 Nordeste 0 -- -- 69
2019-10-13 07:00:00 21.1 3 Nordeste 6 Este 0 -- -- 69
2019-10-13 06:00:00 21.2 2 Nordeste 8 Este 0 -- -- 70
2019-10-13 05:00:00 21.5 2 Nordeste 14 Nordeste 0 -- -- 69
2019-10-13 04:00:00 21.7 5 Nordeste 9 Este 0 -- -- 69
2019-10-13 03:00:00 21.5 0 Calma 5 Norte 0 -- -- 71
2019-10-13 02:00:00 21.6 4 Nordeste 8 Este 0 -- -- 72
2019-10-13 01:00:00 21.3 3 Este 5 Este 0 -- -- 74
2019-10-13 00:00:00 21.6 4 Este 7 Este 0 -- -- 73
2019-10-12 23:00:00 22 3 Este 15 Este 0 -- -- 72
2019-10-12 22:00:00 22.7 3 Sudoeste 12 Oeste 0 -- -- 72
2019-10-12 21:00:00 22.8 8 Noroeste 14 Noroeste 0 -- -- 72
2019-10-12 20:00:00 22.9 5 Este 13 Sudeste 0 -- -- 72
2019-10-12 19:00:00 22.5 5 Sudeste 12 Sudeste 0 -- -- 71
2019-10-12 18:00:00 22.7 6 Sudeste 12 Sudeste 0 -- -- 70
2019-10-12 17:00:00 22.9 5 Sudeste 14 Sudeste 0 -- -- 70
2019-10-12 16:00:00 22.8 8 Sudeste 19 Sudeste 0 -- -- 72
2019-10-12 15:00:00 23.1 13 Sudeste 25 Este 0 -- -- 70
2019-10-12 14:00:00 23 13 Este 28 Este 0 -- -- 72
2019-10-12 13:00:00 23.1 13 Este 28 Este 0 -- -- 68
2019-10-12 12:00:00 23.4 11 Este 27 Este 0 -- -- 70
2019-10-12 11:00:00 24 5 Nordeste 10 Este 0 -- -- 60
2019-10-12 10:00:00 23.2 4 Este 10 Norte 0 -- -- 65
2019-10-12 09:00:00 20.7 4 Noroeste 9 Norte 0 -- -- 73
2019-10-12 08:00:00 19.9 6 Norte 10 Noroeste 0 -- -- 76
2019-10-12 07:00:00 19.9 4 Norte 6 Norte 0 -- -- 79
2019-10-12 06:00:00 20.2 3 Norte 5 Norte 0 -- -- 80
2019-10-12 05:00:00 20.5 0 Calma 5 Norte 0 -- -- 79
2019-10-12 04:00:00 20.9 4 Norte 8 Norte 0 -- -- 78
2019-10-12 03:00:00 21.2 4 Noroeste 6 Noroeste 0 -- -- 78
2019-10-12 02:00:00 21.4 0 Calma 4 Norte 0 -- -- 78
2019-10-12 01:00:00 21.7 0 Calma 9 Oeste 0 -- -- 76
2019-10-12 00:00:00 22.2 6 Oeste 15 Oeste 0 -- -- 75
2019-10-11 23:00:00 22.5 9 Oeste 18 Oeste 0 -- -- 76
2019-10-11 22:00:00 22.8 10 Oeste 17 Oeste 0 -- -- 75
2019-10-11 21:00:00 23.2 4 Oeste 16 Noroeste 0 -- -- 73
2019-10-11 20:00:00 23.4 9 Noroeste 14 Oeste 0 -- -- 72
2019-10-11 19:00:00 24.2 4 Oeste 23 Sudoeste 0 -- -- 70
2019-10-11 18:00:00 24.2 11 Sur 24 Sur 0 -- -- 71
2019-10-11 17:00:00 25.3 13 Sur 27 Sur 0 -- -- 67
2019-10-11 16:00:00 24.6 11 Sudeste 24 Sudeste 0 -- -- 67
2019-10-11 15:00:00 24.2 14 Sudeste 27 Este 0 -- -- 69
2019-10-11 14:00:00 23.9 14 Este 22 Sudeste 0 -- -- 70
2019-10-11 13:00:00 25 12 Sur 19 Sudoeste 0 -- -- 63
2019-10-11 12:00:00 25.1 10 Sur 18 Sudeste 0 -- -- 62
2019-10-11 11:00:00 23.2 10 Sudeste 16 Sudeste 0 -- -- 72
2019-10-11 10:00:00 23 3 Nordeste 9 Este 0 -- -- 67
2019-10-11 09:00:00 20.7 5 Norte 9 Norte 0 -- -- 73
2019-10-11 08:00:00 20 6 Norte 10 Noroeste 0 -- -- 77
2019-10-11 07:00:00 20.3 4 Norte 7 Norte 0 -- -- 82
2019-10-11 06:00:00 20.5 3 Nordeste 7 Nordeste 0 -- -- 84
2019-10-11 05:00:00 21 0 Calma 8 Noroeste 0 -- -- 82
2019-10-11 04:00:00 21.4 5 Noroeste 10 Noroeste 0 -- -- 82
2019-10-11 03:00:00 21.5 2 Oeste 4 Norte 0 -- -- 81
2019-10-11 02:00:00 21.5 3 Sudoeste 7 Oeste 0 -- -- 81
2019-10-11 01:00:00 22 2 Este 9 Este 0 -- -- 77
2019-10-11 00:00:00 22.4 5 Este 15 Este 0 -- -- 76
2019-10-10 23:00:00 22.8 6 Este 14 Nordeste 0 -- -- 75
2019-10-10 22:00:00 23.1 8 Nordeste 21 Este 0 -- -- 73
2019-10-10 21:00:00 23.1 10 Este 25 Este 0 -- -- 73
2019-10-10 20:00:00 23.1 11 Este 31 Este 0 -- -- 74
2019-10-10 19:00:00 23.4 17 Este 37 Este 0 -- -- 77
2019-10-10 18:00:00 23.6 15 Este 33 Este 0 -- -- 77
2019-10-10 17:00:00 23.8 18 Este 37 Sudeste 0 -- -- 74
2019-10-10 16:00:00 23.9 18 Este 32 Este 0 -- -- 73
2019-10-10 15:00:00 24.1 15 Este 29 Este 0 -- -- 72
2019-10-10 14:00:00 24.8 6 Oeste 29 Este 0 -- -- 68
2019-10-10 13:00:00 25.6 11 Sudeste 26 Este 0 -- -- 65
2019-10-10 12:00:00 25.5 11 Sur 22 Sudoeste 0 -- -- 63
2019-10-10 11:00:00 25.2 6 Sudoeste 11 Oeste 0 -- -- 61
2019-10-10 10:00:00 23.5 3 Oeste 8 Oeste 0 -- -- 68
2019-10-10 09:00:00 20.9 0 Calma 12 Norte 0 -- -- 78
2019-10-10 08:00:00 20 6 Norte 9 Norte 0 -- -- 80
2019-10-10 07:00:00 20 4 Norte 8 Norte 0 -- -- 80
2019-10-10 06:00:00 20.3 5 Noroeste 9 Noroeste 0 -- -- 79
2019-10-10 05:00:00 20.3 5 Norte 9 Norte 0 -- -- 79
2019-10-10 04:00:00 20.7 2 Norte 5 Norte 0 -- -- 80
2019-10-10 03:00:00 21 2 Oeste 6 Oeste 0 -- -- 81
2019-10-10 02:00:00 21.3 3 Este 8 Noroeste 0 -- -- 78
2019-10-10 01:00:00 21.6 5 Noroeste 8 Noroeste 0 -- -- 78
2019-10-10 00:00:00 22 4 Noroeste 6 Noroeste 0 -- -- 78
2019-10-09 23:00:00 22 2 Sudoeste 6 Sudeste 0 -- -- 77
2019-10-09 22:00:00 22.3 3 Sur 10 Oeste 0 -- -- 76
2019-10-09 21:00:00 22.8 8 Oeste 17 Oeste 0 -- -- 74
2019-10-09 20:00:00 23.5 12 Oeste 20 Oeste 0 -- -- 68
2019-10-09 19:00:00 24.9 13 Sudoeste 21 Oeste 0 -- -- 62
2019-10-09 18:00:00 25.7 13 Sudoeste 19 Oeste 0 -- -- 63
2019-10-09 17:00:00 26.2 12 Sudoeste 21 Sudoeste 0 -- -- 60
2019-10-09 16:00:00 26.5 11 Sudoeste 24 Sur 0 -- -- 58
2019-10-09 15:00:00 26.2 12 Sudoeste 23 Sudoeste 0 -- -- 63
2019-10-09 14:00:00 26.1 15 Sur 26 Sudoeste 0 -- -- 61
2019-10-09 13:00:00 25.6 12 Oeste 28 Oeste 0 -- -- 62
2019-10-09 12:00:00 25.4 11 Sudoeste 18 Sudoeste 0 -- -- 64
2019-10-09 11:00:00 23.9 6 Sudeste 12 Sudeste 0 -- -- 71
2019-10-09 10:00:00 22.6 6 Sudeste 10 Sudeste 0 -- -- 76
2019-10-09 09:00:00 20.6 3 Norte 8 Norte 0 -- -- 82
2019-10-09 08:00:00 20.1 0 Calma 7 Nordeste 0 -- -- 84
2019-10-09 07:00:00 20.4 3 Nordeste 5 Nordeste 0 -- -- 85
2019-10-09 06:00:00 20.6 3 Norte 4 Norte 0 -- -- 84
2019-10-09 05:00:00 20.6 0 Calma 4 Sur 0 -- -- 85
2019-10-09 04:00:00 21.1 0 Calma 7 Noroeste 0 -- -- 82
2019-10-09 03:00:00 21.3 6 Noroeste 13 Noroeste 0 -- -- 82
2019-10-09 02:00:00 21.5 7 Noroeste 10 Noroeste 0 -- -- 77
2019-10-09 01:00:00 21.7 5 Sudeste 8 Sudeste 0 -- -- 75
2019-10-09 00:00:00 22 2 Este 11 Sudeste 0 -- -- 75
2019-10-08 23:00:00 22.7 5 Sudoeste 12 Oeste 0 -- -- 74
2019-10-08 22:00:00 22.8 8 Noroeste 15 Noroeste 0 -- -- 75
2019-10-08 21:00:00 22.9 8 Oeste 12 Oeste 0 -- -- 75
2019-10-08 20:00:00 22.9 6 Sur 18 Sudeste 0 -- -- 77
2019-10-08 19:00:00 23.5 10 Sudeste 20 Oeste 0 -- -- 76
2019-10-08 18:00:00 25.2 12 Sudoeste 29 Sudoeste 0 -- -- 68
2019-10-08 17:00:00 25.9 15 Sudoeste 29 Oeste 0 -- -- 66
2019-10-08 16:00:00 27 6 Sur 21 Sudeste 0 -- -- 62
2019-10-08 15:00:00 26.1 8 Sur 21 Oeste 0 -- -- 67
2019-10-08 14:00:00 26.2 13 Sudoeste 22 Sudoeste 0 -- -- 66
2019-10-08 13:00:00 25.9 12 Sudoeste 21 Oeste 0 -- -- 68
2019-10-08 12:00:00 25.2 10 Sudoeste 15 Sudoeste 0 -- -- 71
2019-10-08 11:00:00 24.3 9 Sudoeste 15 Sudoeste 0 -- -- 74
2019-10-08 10:00:00 22.7 4 Oeste 7 Noroeste 0 -- -- 81
2019-10-08 09:00:00 21.6 3 Este 6 Norte 0 -- -- 85
2019-10-08 08:00:00 20.3 0 Calma 6 Norte 0 -- -- 85
2019-10-08 07:00:00 20.5 4 Norte 6 Noroeste 0 -- -- 82
2019-10-08 06:00:00 20.7 2 Oeste 5 Norte 0 -- -- 84
2019-10-08 05:00:00 21 3 Noroeste 5 Noroeste 0 -- -- 84
2019-10-08 04:00:00 21.1 0 Calma 5 Norte 0 -- -- 84
2019-10-08 03:00:00 21.2 3 Noroeste 5 Sudeste 0 -- -- 82
2019-10-08 02:00:00 21.5 0 Calma 4 Sudeste 0 -- -- 82
2019-10-08 01:00:00 22 2 Sudeste 5 Sudeste 0 -- -- 81
2019-10-08 00:00:00 22.2 3 Sudeste 6 Sur 0 -- -- 81
2019-10-07 23:00:00 22.5 3 Sur 6 Sudoeste 0 -- -- 80
2019-10-07 22:00:00 22.8 3 Sudoeste 15 Oeste 0 -- -- 80
2019-10-07 21:00:00 23 4 Sudoeste 5 Oeste 0 -- -- 79
2019-10-07 20:00:00 23.3 4 Sudeste 9 Sur 0 -- -- 78
2019-10-07 19:00:00 24.4 6 Sudoeste 17 Sudoeste 0 -- -- 73
2019-10-07 18:00:00 25.6 9 Sudoeste 18 Sudoeste 0 -- -- 70
2019-10-07 17:00:00 26.1 12 Sudoeste 21 Sudoeste 0 -- -- 66
2019-10-07 16:00:00 26.7 11 Sudoeste 23 Oeste 0 -- -- 65
2019-10-07 15:00:00 26.7 13 Sudoeste 21 Sudoeste 0 -- -- 65
2019-10-07 14:00:00 26.5 9 Sudoeste 23 Sudoeste 0 -- -- 64
2019-10-07 13:00:00 25.9 15 Sudoeste 24 Sudoeste 0 -- -- 67
2019-10-07 12:00:00 25.6 10 Oeste 21 Sudoeste 0 -- -- 67
2019-10-07 11:00:00 24.7 4 Sur 13 Sudeste 0 -- -- 67
2019-10-07 10:00:00 23.5 6 Sur 13 Sur 0 -- -- 74
2019-10-07 09:00:00 21.4 4 Norte 7 Norte 0 -- -- 80
2019-10-07 08:00:00 20.6 3 Norte 8 Noroeste 0 -- -- 81
2019-10-07 07:00:00 20.6 3 Oeste 6 Oeste 0 -- -- 81
2019-10-07 06:00:00 20.8 2 Norte 6 Oeste 0 -- -- 80
2019-10-07 05:00:00 21.2 2 Nordeste 5 Sudeste 0 -- -- 78
2019-10-07 04:00:00 21.4 3 Sudeste 5 Sudeste 0 -- -- 79
2019-10-07 03:00:00 21.4 2 Sur 5 Sudeste 0 -- -- 75
2019-10-07 02:00:00 21.9 0 Calma 5 Este 0 -- -- 72
2019-10-07 01:00:00 22 3 Sudeste 5 Sudeste 0 -- -- 73
2019-10-07 00:00:00 22.5 3 Este 7 Sudeste 0 -- -- 73
2019-10-06 23:00:00 22.6 6 Sudeste 8 Sudeste 0 -- -- 76
2019-10-06 22:00:00 23 4 Sur 10 Oeste 0 -- -- 76
2019-10-06 21:00:00 23.4 6 Oeste 15 Oeste 0 -- -- 74
2019-10-06 20:00:00 23.9 10 Oeste 15 Sudoeste 0 -- -- 71
2019-10-06 19:00:00 25.4 9 Sudoeste 18 Sudoeste 0 -- -- 65
2019-10-06 18:00:00 26.5 9 Sudoeste 18 Sudoeste 0 -- -- 62
2019-10-06 17:00:00 27.1 10 Sudoeste 26 Sudoeste 0 -- -- 61
2019-10-06 16:00:00 26.9 13 Sudoeste 25 Oeste 0 -- -- 62
2019-10-06 15:00:00 26.8 15 Sudoeste 28 Sudoeste 0 -- -- 63
2019-10-06 14:00:00 26.8 14 Sudoeste 24 Sudoeste 0 -- -- 65
2019-10-06 13:00:00 26.5 13 Sudoeste 23 Sudoeste 0 -- -- 64
2019-10-06 12:00:00 25.8 10 Sudoeste 19 Oeste 0 -- -- 67
2019-10-06 11:00:00 25.4 9 Sudoeste 15 Oeste 0 -- -- 67
2019-10-06 10:00:00 23.8 5 Oeste 10 Oeste 0 -- -- 71
2019-10-06 09:00:00 21.7 4 Norte 6 Norte 0 -- -- 79
2019-10-06 08:00:00 20.9 0 Calma 7 Norte 0 -- -- 82
2019-10-06 07:00:00 20.9 2 Noroeste 8 Oeste 0 -- -- 84
2019-10-06 06:00:00 21.3 3 Noroeste 8 Norte 0 -- -- 81
2019-10-06 05:00:00 21.5 5 Norte 8 Norte 0 -- -- 82
2019-10-06 04:00:00 21.9 6 Oeste 9 Oeste 0 -- -- 81
2019-10-06 03:00:00 22.1 5 Oeste 8 Oeste 0 -- -- 82
2019-10-06 02:00:00 22.3 0 Calma 7 Este 0 -- -- 80
2019-10-06 01:00:00 22.5 2 Sudeste 8 Sudeste 0 -- -- 80
2019-10-06 00:00:00 22.8 4 Sudoeste 8 Noroeste 0 -- -- 81
2019-10-05 23:00:00 23.1 3 Norte 8 Oeste 0 -- -- 81
2019-10-05 22:00:00 23.3 4 Oeste 9 Oeste 0 -- -- 79
2019-10-05 21:00:00 23.9 5 Oeste 15 Oeste 0 -- -- 76
2019-10-05 20:00:00 24.5 6 Oeste 14 Oeste 0 -- -- 76
2019-10-05 19:00:00 25.4 11 Sudoeste 22 Sudoeste 0 -- -- 71
2019-10-05 18:00:00 26.9 14 Sudoeste 27 Sudoeste 0 -- -- 64
2019-10-05 17:00:00 27.2 15 Sudoeste 26 Sudoeste 0 -- -- 63
2019-10-05 16:00:00 27.5 14 Oeste 23 Oeste 0 -- -- 62
2019-10-05 15:00:00 27.8 13 Sudoeste 28 Sudoeste 0 -- -- 57
2019-10-05 14:00:00 27.1 13 Sudoeste 35 Sudoeste 0 -- -- 62
2019-10-05 13:00:00 27.1 15 Oeste 26 Sudoeste 0 -- -- 60
2019-10-05 12:00:00 26.7 12 Sudoeste 22 Oeste 0 -- -- 59
2019-10-05 11:00:00 25.4 9 Oeste 17 Oeste 0 -- -- 66
2019-10-05 10:00:00 23.9 9 Oeste 16 Oeste 0 -- -- 71
2019-10-05 09:00:00 22 9 Noroeste 13 Noroeste 0 -- -- 78
2019-10-05 08:00:00 21.4 5 Noroeste 10 Noroeste 0 -- -- 84
2019-10-05 07:00:00 21.4 5 Noroeste 10 Noroeste 0 -- -- 85
2019-10-05 06:00:00 21.4 4 Noroeste 8 Noroeste 0 -- -- 86
2019-10-05 05:00:00 21.4 3 Noroeste 9 Oeste 0 -- -- 85
2019-10-05 04:00:00 21.8 7 Noroeste 13 Oeste 0 -- -- 85
2019-10-05 03:00:00 21.8 5 Norte 9 Norte 0 -- -- 89
2019-10-05 02:00:00 22 0 Calma 6 Sudoeste 0 -- -- 89
2019-10-05 01:00:00 22.2 2 Sudoeste 5 Noroeste 0 -- -- 89
2019-10-05 00:00:00 22.6 4 Noroeste 8 Noroeste 0 -- -- 89
2019-10-04 23:00:00 22.7 5 Sudoeste 7 Sudoeste 0 -- -- 89
2019-10-04 22:00:00 23.1 5 Sudoeste 11 Sudoeste 0 -- -- 86
2019-10-04 21:00:00 23.5 5 Sudoeste 12 Sudoeste 0 -- -- 83
2019-10-04 20:00:00 24.3 9 Sudoeste 20 Oeste 0 -- -- 77
2019-10-04 19:00:00 26.3 9 Sudoeste 17 Oeste 0 -- -- 69
2019-10-04 18:00:00 27.5 8 Sudoeste 19 Oeste 0 -- -- 63
2019-10-04 17:00:00 27.6 9 Sudoeste 22 Oeste 0 -- -- 62
2019-10-04 16:00:00 26.4 16 Oeste 28 Sudoeste 0 -- -- 66
2019-10-04 15:00:00 29 15 Sudoeste 24 Sudoeste 0 -- -- 56
2019-10-04 14:00:00 28.4 12 Sudoeste 23 Sudoeste 0 -- -- 60
2019-10-04 13:00:00 27.2 13 Sudoeste 24 Sudoeste 0 -- -- 63
2019-10-04 12:00:00 26.8 12 Sudoeste 19 Sudoeste 0 -- -- 66
2019-10-04 11:00:00 25.3 9 Oeste 15 Sudoeste 0 -- -- 71
2019-10-04 10:00:00 24.4 8 Oeste 14 Oeste 0 -- -- 77
2019-10-04 09:00:00 22.5 6 Noroeste 12 Noroeste 0 -- -- 84
2019-10-04 08:00:00 21.6 6 Noroeste 12 Oeste 0 -- -- 91
2019-10-04 07:00:00 21.7 7 Noroeste 11 Noroeste 0 -- -- 90
2019-10-04 06:00:00 21.8 2 Norte 12 Oeste 0 -- -- 90
2019-10-04 05:00:00 21.8 6 Oeste 13 Oeste 0 -- -- 91
2019-10-04 04:00:00 22.1 4 Oeste 9 Sudoeste 0 -- -- 92
2019-10-04 03:00:00 22.2 3 Oeste 13 Sudoeste 0 -- -- 92
2019-10-04 02:00:00 22.4 6 Oeste 13 Oeste 0 -- -- 91
2019-10-04 01:00:00 22.7 8 Oeste 15 Oeste 0 -- -- 89
2019-10-04 00:00:00 22.9 5 Sudoeste 10 Oeste 0 -- -- 87
2019-10-03 23:00:00 23.2 6 Oeste 9 Noroeste 0 -- -- 86
2019-10-03 22:00:00 23.5 0 Calma 10 Oeste 0 -- -- 84
2019-10-03 21:00:00 23.9 5 Oeste 13 Oeste 0 -- -- 83
2019-10-03 20:00:00 24.6 6 Sudoeste 14 Sudoeste 0 -- -- 80
2019-10-03 19:00:00 26.2 7 Sudoeste 15 Sudoeste 0 -- -- 70
2019-10-03 18:00:00 27.5 12 Sudoeste 20 Oeste 0 -- -- 65
2019-10-03 17:00:00 28.4 10 Sudoeste 19 Oeste 0 -- -- 61
2019-10-03 16:00:00 29 10 Sudoeste 20 Oeste 0 -- -- 60
2019-10-03 15:00:00 28.8 12 Sudoeste 21 Sudoeste 0 -- -- 59
2019-10-03 14:00:00 28.6 12 Oeste 21 Oeste 0 -- -- 58
2019-10-03 13:00:00 28.2 13 Oeste 20 Sudoeste 0 -- -- 57
2019-10-03 12:00:00 28.1 9 Oeste 17 Sudoeste 0 -- -- 55
2019-10-03 11:00:00 27.4 11 Sudoeste 17 Sudoeste 0 -- -- 58
2019-10-03 10:00:00 25.5 5 Oeste 11 Oeste 0 -- -- 63
2019-10-03 09:00:00 23.1 6 Oeste 9 Oeste 0 -- -- 63
2019-10-03 08:00:00 21.5 0 Calma 6 Oeste 0 -- -- 74
2019-10-03 07:00:00 21.6 4 Oeste 9 Oeste 0 -- -- 74
2019-10-03 06:00:00 21.8 3 Oeste 10 Oeste 0 -- -- 80
2019-10-03 05:00:00 21.9 5 Oeste 9 Oeste 0 -- -- 82
2019-10-03 04:00:00 22.1 3 Oeste 13 Oeste 0 -- -- 80
2019-10-03 03:00:00 22.6 8 Oeste 13 Oeste 0 -- -- 85
2019-10-03 02:00:00 22.5 4 Sudoeste 7 Sudoeste 0 -- -- 87
2019-10-03 01:00:00 23.1 0 Calma 7 Sudoeste 0 -- -- 83
2019-10-03 00:00:00 23.4 2 Sudoeste 10 Oeste 0 -- -- 83
2019-10-02 23:00:00 23.7 5 Oeste 10 Oeste 0 -- -- 83
2019-10-02 22:00:00 24 6 Oeste 9 Sudoeste 0 -- -- 81
2019-10-02 21:00:00 24.3 6 Oeste 13 Sudoeste 0 -- -- 81
2019-10-02 20:00:00 25.3 9 Oeste 13 Oeste 0 -- -- 75
2019-10-02 19:00:00 26.6 8 Oeste 13 Oeste 0 -- -- 68
2019-10-02 18:00:00 28.3 7 Sudoeste 18 Sudoeste 0 -- -- 61
2019-10-02 17:00:00 28.7 9 Sudoeste 26 Sudoeste 0 -- -- 61
2019-10-02 16:00:00 29 14 Sudoeste 24 Oeste 0 -- -- 56
2019-10-02 15:00:00 26.9 9 Este 33 Este 0 -- -- 70
2019-10-02 14:00:00 26.1 18 Este 35 Nordeste 0 -- -- 73
2019-10-02 13:00:00 28 7 Sudeste 21 Este 0 -- -- 66
2019-10-02 12:00:00 28.6 13 Sudoeste 21 Sur 0 -- -- 64
2019-10-02 11:00:00 27.6 8 Sudoeste 14 Sudoeste 0 -- -- 62
2019-10-02 10:00:00 26 3 Sudoeste 9 Oeste 0 -- -- 62
2019-10-02 09:00:00 22.8 5 Oeste 9 Oeste 0 -- -- 60
2019-10-02 08:00:00 21.7 4 Oeste 10 Oeste 0 -- -- 72
2019-10-02 07:00:00 21.8 6 Oeste 13 Oeste 0 -- -- 86
2019-10-02 06:00:00 21.8 6 Oeste 12 Noroeste 0 -- -- 78
2019-10-02 05:00:00 22.2 8 Oeste 12 Oeste 0 -- -- 90
2019-10-02 04:00:00 22.4 0 Calma 11 Oeste 0 -- -- 87
2019-10-02 03:00:00 22.5 4 Oeste 10 Oeste 0 -- -- 82
2019-10-02 02:00:00 22.9 6 Oeste 10 Oeste 0 -- -- 88
2019-10-02 01:00:00 23.3 2 Noroeste 10 Sudoeste 0 -- -- 85
2019-10-02 00:00:00 23.5 3 Sur 6 Sudoeste 0 -- -- 81
2019-10-01 23:00:00 24.1 5 Oeste 11 Sudoeste 0 -- -- 75
2019-10-01 22:00:00 25 3 Sur 11 Oeste 0 -- -- 69
2019-10-01 21:00:00 25.3 6 Oeste 10 Sudoeste 0 -- -- 68
2019-10-01 20:00:00 25.7 8 Oeste 16 Sudoeste 0 -- -- 68
2019-10-01 19:00:00 27.7 10 Sudoeste 20 Sudoeste 0 -- -- 63
2019-10-01 18:00:00 29.1 10 Sudoeste 19 Oeste 0 -- -- 62
2019-10-01 17:00:00 30 10 Oeste 18 Sudoeste 0 -- -- 56
2019-10-01 16:00:00 30.4 9 Sudoeste 21 Sudoeste 0 -- -- 54
2019-10-01 15:00:00 30.3 10 Sudoeste 15 Sur 0 -- -- 55
2019-10-01 14:00:00 28.4 10 Sudoeste 17 Oeste 0 -- -- 63
2019-10-01 13:00:00 28.5 10 Sudoeste 18 Sudoeste 0 -- -- 60
2019-10-01 12:00:00 28 6 Sudoeste 15 Sur 0 -- -- 64
2019-10-01 11:00:00 27.3 8 Sur 12 Sur 0 -- -- 65
2019-10-01 10:00:00 24.1 7 Noroeste 12 Oeste 0 -- -- 79
2019-10-01 09:00:00 22.3 0 Calma 8 Oeste 0 -- -- 85
2019-10-01 08:00:00 21.7 4 Oeste 8 Oeste 0 -- -- 88
2019-10-01 07:00:00 21.8 4 Nordeste 10 Oeste 0 -- -- 77
2019-10-01 06:00:00 22.5 6 Oeste 10 Oeste 0 -- -- 75
2019-10-01 05:00:00 22.3 6 Oeste 11 Oeste 0 -- -- 78
2019-10-01 04:00:00 22.3 8 Oeste 15 Oeste 0 -- -- 85
2019-10-01 03:00:00 22.6 9 Sudoeste 14 Oeste 0 -- -- 88
2019-10-01 02:00:00 23.1 6 Oeste 12 Oeste 0 -- -- 78
2019-10-01 01:00:00 23.5 5 Oeste 13 Oeste 0 -- -- 79
2019-10-01 00:00:00 23.1 6 Oeste 11 Oeste 0 -- -- 88
2019-09-30 23:00:00 23.4 5 Sudoeste 8 Sudoeste 0 -- -- 86
2019-09-30 22:00:00 23.7 2 Sur 11 Sudoeste 0 -- -- 82
2019-09-30 21:00:00 24.1 4 Sudoeste 18 Este 0 -- -- 78
2019-09-30 20:00:00 24.9 3 Noroeste 23 Oeste 0 -- -- 73
2019-09-30 19:00:00 25.6 11 Oeste 23 Sudoeste 0 -- -- 74
2019-09-30 18:00:00 27.5 11 Sudoeste 20 Sudoeste 0 -- -- 67
2019-09-30 17:00:00 28.5 13 Sudoeste 18 Sudoeste 0 -- -- 63
2019-09-30 16:00:00 28.8 12 Sudoeste 21 Sudoeste 0 -- -- 58
2019-09-30 15:00:00 29.3 11 Sudoeste 19 Sudoeste 0 -- -- 57
2019-09-30 14:00:00 28.4 12 Sudoeste 21 Sudoeste 0 -- -- 64
2019-09-30 13:00:00 27.9 7 Sudoeste 16 Sudoeste 0 -- -- 68
2019-09-30 12:00:00 27.6 8 Sudoeste 19 Sudoeste 0 -- -- 64
2019-09-30 11:00:00 27 7 Sudoeste 11 Sudoeste 0 -- -- 62
2019-09-30 10:00:00 24.6 3 Este 14 Sudeste 0 -- -- 70
2019-09-30 09:00:00 23.5 4 Noroeste 10 Oeste 0 -- -- 69
2019-09-30 08:00:00 21.9 8 Oeste 12 Noroeste 0 -- -- 70
2019-09-30 07:00:00 21.9 5 Sudoeste 21 Oeste 0 -- -- 79
2019-09-30 06:00:00 21.6 6 Oeste 12 Oeste 0 -- -- 82
2019-09-30 05:00:00 21.5 2 Sudoeste 11 Noroeste 0 -- -- 86
2019-09-30 04:00:00 21.5 3 Sudeste 10 Noroeste 0 -- -- 90
2019-09-30 03:00:00 21.6 3 Norte 13 Sudeste 0 -- -- 92
2019-09-30 02:00:00 21.8 5 Oeste 11 Oeste 0 -- -- 88
2019-09-30 01:00:00 22.2 4 Este 6 Este 0 -- -- 90
2019-09-30 00:00:00 22.6 3 Este 6 Sudeste 0 -- -- 86
2019-09-29 23:00:00 22.9 4 Sudeste 9 Noroeste 0 -- -- 85
2019-09-29 22:00:00 22.9 7 Oeste 11 Sudoeste 0 -- -- 84
2019-09-29 21:00:00 23.3 0 Calma 9 Sudoeste 0 -- -- 83
2019-09-29 20:00:00 23.8 6 Sudoeste 10 Sur 0 -- -- 82
2019-09-29 19:00:00 25.3 6 Sur 10 Sudoeste 0 -- -- 76
2019-09-29 18:00:00 25.5 7 Sudoeste 14 Sudoeste 0 -- -- 75
2019-09-29 17:00:00 26.1 12 Sudoeste 20 Sudoeste 0 -- -- 71
2019-09-29 16:00:00 26.8 9 Sudoeste 17 Sudoeste 0 -- -- 69
2019-09-29 15:00:00 27.3 9 Sudoeste 19 Sudoeste 0 -- -- 67
2019-09-29 14:00:00 26.3 12 Sudoeste 22 Sudoeste 0 -- -- 70
2019-09-29 13:00:00 26.4 9 Sudoeste 17 Sudoeste 0 -- -- 70
2019-09-29 12:00:00 26.3 6 Sudoeste 15 Sudeste 0 -- -- 69
2019-09-29 11:00:00 24.7 7 Sudeste 14 Sudeste 0 -- -- 75
2019-09-29 10:00:00 23 6 Oeste 12 Oeste 0 -- -- 81
2019-09-29 09:00:00 21.5 0 Calma 6 Este 0 -- -- 85
2019-09-29 08:00:00 20.7 2 Este 5 Norte 0 -- -- 83
2019-09-29 07:00:00 20.8 2 Sudeste 6 Noroeste 0 -- -- 83
2019-09-29 06:00:00 20.8 0 Calma 5 Sur 0 -- -- 84
2019-09-29 05:00:00 21.2 0 Calma 5 Norte 0 -- -- 81
2019-09-29 04:00:00 21.6 0 Calma 5 Sudeste 0 -- -- 79
2019-09-29 03:00:00 21.7 4 Este 8 Este 0 -- -- 78
2019-09-29 02:00:00 21.8 2 Sudeste 5 Sur 0 -- -- 83
2019-09-29 01:00:00 22.1 3 Sudoeste 5 Sudoeste 0 -- -- 83
2019-09-29 00:00:00 22.4 4 Sudeste 8 Oeste 0 -- -- 81
2019-09-28 23:00:00 22.8 5 Oeste 9 Oeste 0 -- -- 79
2019-09-28 22:00:00 23 5 Sudoeste 9 Sudoeste 0 -- -- 75
2019-09-28 21:00:00 23.6 4 Sur 11 Oeste 0 -- -- 72
2019-09-28 20:00:00 24.1 5 Sudoeste 11 Oeste 0 -- -- 70
2019-09-28 19:00:00 25 6 Sudoeste 18 Sur 0 -- -- 68
2019-09-28 18:00:00 25.3 12 Sur 20 Sur 0 -- -- 69
2019-09-28 17:00:00 26.9 11 Sudoeste 27 Sudoeste 0 -- -- 63
2019-09-28 16:00:00 26.8 14 Sudoeste 27 Sudoeste 0 -- -- 63
2019-09-28 15:00:00 26.9 15 Sudoeste 26 Oeste 0 -- -- 64
2019-09-28 14:00:00 26.8 13 Oeste 22 Sudoeste 0 -- -- 65
2019-09-28 13:00:00 26.4 13 Sudoeste 25 Oeste 0 -- -- 65
2019-09-28 12:00:00 26.3 10 Sudoeste 18 Sudoeste 0 -- -- 66
2019-09-28 11:00:00 25.1 9 Oeste 15 Sudoeste 0 -- -- 68
2019-09-28 10:00:00 23.4 4 Nordeste 8 Este 0 -- -- 77
2019-09-28 09:00:00 21.7 3 Oeste 7 Oeste 0 -- -- 81
2019-09-28 08:00:00 20.6 2 Noroeste 7 Norte 0 -- -- 85
2019-09-28 07:00:00 21 4 Norte 7 Norte 0 -- -- 82
2019-09-28 06:00:00 21.2 2 Norte 4 Este 0 -- -- 85
2019-09-28 05:00:00 21.3 3 Sur 4 Sur 0 -- -- 85
2019-09-28 04:00:00 21.4 0 Calma 4 Sudeste 0 -- -- 81
2019-09-28 03:00:00 22 2 Sur 6 Norte 0 -- -- 84
2019-09-28 02:00:00 22 0 Calma 4 Sudoeste 0 -- -- 78
2019-09-28 01:00:00 22.3 0 Calma 8 Este 0 -- -- 73
2019-09-28 00:00:00 22.7 0 Calma 6 Este 0 -- -- 75
2019-09-27 23:00:00 22.7 2 Sur 8 Sudeste 0 -- -- 80
2019-09-27 22:00:00 23.1 4 Oeste 12 Sudoeste 0 -- -- 80
2019-09-27 21:00:00 23.8 8 Sudoeste 12 Sudoeste 0 -- -- 74
2019-09-27 20:00:00 25.1 6 Sudoeste 14 Sudoeste 0 -- -- 65
2019-09-27 19:00:00 26.6 6 Sudoeste 15 Sudoeste 0 -- -- 61
2019-09-27 18:00:00 26.7 7 Sur 14 Sur 0 -- -- 61
2019-09-27 17:00:00 26.6 9 Sudoeste 21 Sudoeste 0 -- -- 63
2019-09-27 16:00:00 26.7 12 Sudoeste 28 Sur 0 -- -- 65
2019-09-27 15:00:00 27.1 12 Sudoeste 23 Sudoeste 0 -- -- 63
2019-09-27 14:00:00 26.7 15 Sudoeste 22 Sudoeste 0 -- -- 65
2019-09-27 13:00:00 26.6 10 Sudoeste 20 Sudoeste 0 -- -- 66
2019-09-27 12:00:00 26.1 8 Oeste 15 Oeste 0 -- -- 67
2019-09-27 11:00:00 25.5 8 Sudoeste 16 Sur 0 -- -- 68
2019-09-27 10:00:00 24 3 Sudoeste 7 Sudoeste 0 -- -- 70
2019-09-27 09:00:00 21.9 0 Calma 7 Noroeste 0 -- -- 77
2019-09-27 08:00:00 21 3 Nordeste 7 Nordeste 0 -- -- 82
2019-09-27 07:00:00 20.9 0 Calma 6 Noroeste 0 -- -- 83
2019-09-27 06:00:00 21.4 4 Norte 8 Este 0 -- -- 84
2019-09-27 05:00:00 21.6 2 Nordeste 6 Oeste 0 -- -- 83
2019-09-27 04:00:00 21.6 3 Oeste 5 Oeste 0 -- -- 84
2019-09-27 03:00:00 21.8 3 Sudoeste 5 Oeste 0 -- -- 83
2019-09-27 02:00:00 22.2 3 Oeste 8 Oeste 0 -- -- 81
2019-09-27 01:00:00 22.6 5 Oeste 8 Oeste 0 -- -- 80
2019-09-27 00:00:00 23 3 Sudoeste 6 Sudeste 0 -- -- 71
2019-09-26 23:00:00 23.3 4 Sur 14 Sudeste 0 -- -- 71
2019-09-26 22:00:00 23.5 7 Este 14 Este 0 -- -- 70
2019-09-26 21:00:00 23.8 4 Sudeste 9 Noroeste 0 -- -- 71
2019-09-26 20:00:00 24.3 4 Noroeste 18 Sudoeste 0 -- -- 69
2019-09-26 19:00:00 24.9 13 Sudoeste 22 Sur 0 -- -- 69
2019-09-26 18:00:00 26.6 12 Sudoeste 26 Sudoeste 0 -- -- 62
2019-09-26 17:00:00 27.4 14 Sudoeste 28 Sudoeste 0 -- -- 58
2019-09-26 16:00:00 28.1 13 Sudoeste 21 Sudoeste 0 -- -- 59
2019-09-26 15:00:00 27.2 8 Sudoeste 24 Sur 0 -- -- 61
2019-09-26 14:00:00 27 15 Sudoeste 26 Sudoeste 0 -- -- 62
2019-09-26 13:00:00 27.3 14 Sudoeste 24 Sudoeste 0 -- -- 59
2019-09-26 12:00:00 27.1 11 Sudoeste 16 Sudoeste 0 -- -- 60
2019-09-26 11:00:00 25.8 4 Sudoeste 12 Sudeste 0 -- -- 61
2019-09-26 10:00:00 24.3 5 Sudeste 9 Sudeste 0 -- -- 70
2019-09-26 09:00:00 21.9 4 Noroeste 13 Noroeste 0 -- -- 77
2019-09-26 08:00:00 20.9 5 Noroeste 8 Noroeste 0 -- -- 79
2019-09-26 07:00:00 20.9 6 Norte 9 Norte 0 -- -- 79
2019-09-26 06:00:00 21 2 Norte 6 Oeste 0 -- -- 80
2019-09-26 05:00:00 20.8 0 Calma 5 Sudoeste 0 -- -- 79
2019-09-26 04:00:00 21.3 0 Calma 4 Norte 0 -- -- 81
2019-09-26 03:00:00 21.6 0 Calma 5 Sudoeste 0 -- -- 84
2019-09-26 02:00:00 21.8 0 Calma 4 Sur 0 -- -- 82
2019-09-26 01:00:00 22.1 3 Sudeste 8 Oeste 0 -- -- 80
2019-09-26 00:00:00 22.6 5 Oeste 10 Noroeste 0 -- -- 79
2019-09-25 23:00:00 22.8 5 Oeste 9 Oeste 0 -- -- 79
2019-09-25 22:00:00 23.1 4 Sudoeste 10 Oeste 0 -- -- 77
2019-09-25 21:00:00 23.7 7 Oeste 17 Sudoeste 0 -- -- 71
2019-09-25 20:00:00 24.3 9 Sudoeste 15 Sudoeste 0 -- -- 71
2019-09-25 19:00:00 25.1 10 Sudoeste 15 Sudoeste 0 -- -- 70
2019-09-25 18:00:00 26 9 Sudoeste 21 Oeste 0 -- -- 67
2019-09-25 17:00:00 26.5 13 Sudoeste 27 Sudoeste 0 -- -- 60
2019-09-25 16:00:00 27.1 17 Sudoeste 27 Sudoeste 0 -- -- 59
2019-09-25 15:00:00 27.1 14 Sudoeste 22 Sudoeste 0 -- -- 60
2019-09-25 14:00:00 26.7 13 Sudoeste 19 Sudoeste 0 -- -- 61
2019-09-25 13:00:00 26.2 10 Sudoeste 21 Sudoeste 0 -- -- 63
2019-09-25 12:00:00 26 7 Sudoeste 18 Sudoeste 0 -- -- 63
2019-09-25 11:00:00 25.2 9 Sudoeste 16 Sur 0 -- -- 66
2019-09-25 10:00:00 23.3 4 Oeste 9 Oeste 0 -- -- 71
2019-09-25 09:00:00 21.4 5 Norte 9 Norte 0 -- -- 75
2019-09-25 08:00:00 20.3 0 Calma 5 Este 0 -- -- 82
2019-09-25 07:00:00 20.7 3 Este 5 Este 0 -- -- 80
2019-09-25 06:00:00 21.1 5 Noroeste 11 Noroeste 0 -- -- 77
2019-09-25 05:00:00 21 0 Calma 5 Norte 0 -- -- 78
2019-09-25 04:00:00 21.2 0 Calma 5 Norte 0 -- -- 79
2019-09-25 03:00:00 21.4 2 Norte 4 Este 0 -- -- 75
2019-09-25 02:00:00 21.5 0 Calma 8 Sudeste 0 -- -- 76
2019-09-25 01:00:00 21.7 0 Calma 6 Sur 0 -- -- 73
2019-09-25 00:00:00 22.2 0 Calma 6 Este 0 -- -- 69
2019-09-24 23:00:00 22.7 2 Sudeste 11 Sudeste 0 -- -- 71
2019-09-24 22:00:00 22.9 5 Sur 9 Sudeste 0 -- -- 72
2019-09-24 21:00:00 23.6 4 Sur 10 Sudoeste 0 -- -- 76
2019-09-24 20:00:00 24.1 6 Sudoeste 15 Sudoeste 0 -- -- 71
2019-09-24 19:00:00 24.8 10 Sudoeste 21 Sudoeste 0 -- -- 69
2019-09-24 18:00:00 25.9 14 Sudoeste 33 Sudoeste 0 -- -- 67
2019-09-24 17:00:00 26.9 17 Sudoeste 35 Sudoeste 0 -- -- 63
2019-09-24 16:00:00 27.5 15 Sudoeste 24 Sudoeste 0 -- -- 61
2019-09-24 15:00:00 26.8 6 Sur 21 Sudoeste 0 -- -- 62
2019-09-24 14:00:00 26.5 12 Sudoeste 23 Sudoeste 0 -- -- 61
2019-09-24 13:00:00 26.6 14 Sudoeste 24 Sudoeste 0 -- -- 61
2019-09-24 12:00:00 26.3 10 Sudoeste 17 Sudoeste 0 -- -- 61
2019-09-24 11:00:00 25.1 9 Oeste 14 Sudoeste 0 -- -- 65
2019-09-24 10:00:00 24 6 Sudeste 13 Este 0 -- -- 68
2019-09-24 09:00:00 22.2 4 Nordeste 7 Nordeste 0 -- -- 78
2019-09-24 08:00:00 20.8 0 Calma 8 Norte 0 -- -- 80
2019-09-24 07:00:00 21.2 4 Noroeste 12 Noroeste 0 -- -- 80
2019-09-24 06:00:00 21.2 6 Noroeste 9 Noroeste 0 -- -- 80
2019-09-24 05:00:00 21.3 0 Calma 6 Norte 0 -- -- 81
2019-09-24 04:00:00 21.6 4 Noroeste 10 Noroeste 0 -- -- 79
2019-09-24 03:00:00 21.6 0 Calma 6 Oeste 0 -- -- 80
2019-09-24 02:00:00 22 2 Sudeste 4 Este 0 -- -- 81
2019-09-24 01:00:00 22.2 0 Calma 5 Sudoeste 0 -- -- 79
2019-09-24 00:00:00 22.6 4 Sudoeste 10 Sudoeste 0 -- -- 78
2019-09-23 23:00:00 22.9 5 Sudoeste 9 Oeste 0 -- -- 76
2019-09-23 22:00:00 23.2 5 Oeste 11 Oeste 0 -- -- 76
2019-09-23 21:00:00 23.4 4 Sudoeste 11 Sudoeste 0 -- -- 75
2019-09-23 20:00:00 24.2 9 Sudoeste 20 Sudoeste 0 -- -- 71
2019-09-23 19:00:00 25.7 14 Sudoeste 27 Sudoeste 0 -- -- 64
2019-09-23 18:00:00 26.6 12 Sur 22 Sur 0 -- -- 62
2019-09-23 17:00:00 27.3 8 Sudoeste 26 Oeste 0 -- -- 60
2019-09-23 16:00:00 26.6 15 Oeste 33 Sudoeste 0 -- -- 63
2019-09-23 15:00:00 26.3 17 Sudoeste 31 Sudoeste 0 -- -- 65
2019-09-23 14:00:00 26.8 16 Sudoeste 26 Sudoeste 0 -- -- 66
2019-09-23 13:00:00 26.9 10 Oeste 19 Oeste 0 -- -- 64
2019-09-23 12:00:00 25.3 8 Sudeste 15 Sudeste 0 -- -- 69
2019-09-23 11:00:00 24.5 8 Sudoeste 13 Sudoeste 0 -- -- 73
2019-09-23 10:00:00 23.5 5 Sudeste 13 Este 0 -- -- 75
2019-09-23 09:00:00 22.8 5 Este 10 Este 0 -- -- 77
2019-09-23 08:00:00 22.4 6 Este 12 Este 0 -- -- 80
2019-09-23 07:00:00 22.3 3 Este 9 Este 0 -- -- 82
2019-09-23 06:00:00 22.4 3 Este 7 Este 0 -- -- 85
2019-09-23 05:00:00 22.5 0 Calma 4 Sudoeste 0 -- -- 89
2019-09-23 04:00:00 22.4 3 Sur 5 Sur 0 -- -- 89
2019-09-23 03:00:00 22.6 3 Sudeste 5 Oeste 0 -- -- 87
2019-09-23 02:00:00 22.9 0 Calma 9 Oeste 0 -- -- 86
2019-09-23 01:00:00 23 6 Sudoeste 12 Sur 0 -- -- 84
2019-09-23 00:00:00 23.3 5 Oeste 10 Oeste 0 -- -- 83
2019-09-22 23:00:00 23.3 5 Oeste 9 Oeste 0 -- -- 83
2019-09-22 22:00:00 23.3 5 Oeste 11 Sudoeste 0 -- -- 84
2019-09-22 21:00:00 23.6 5 Sur 12 Sudoeste 0 -- -- 83
2019-09-22 20:00:00 24.2 8 Sudoeste 18 Sudoeste 0 -- -- 77
2019-09-22 19:00:00 25.5 11 Sudoeste 21 Sudoeste 0 -- -- 72
2019-09-22 18:00:00 25.9 13 Sudoeste 22 Sudoeste 0 -- -- 69
2019-09-22 17:00:00 26 9 Sudoeste 23 Sudoeste 0 -- -- 69
2019-09-22 16:00:00 25.8 9 Sudoeste 18 Sudoeste 0 -- -- 70
2019-09-22 15:00:00 26.2 12 Sudoeste 20 Sudoeste 0 -- -- 69
2019-09-22 14:00:00 26.2 11 Sudoeste 21 Sudoeste 0 -- -- 68
2019-09-22 13:00:00 26.3 12 Sudoeste 21 Sudoeste 0 -- -- 65
2019-09-22 12:00:00 26 10 Sudoeste 18 Sudoeste 0 -- -- 66
2019-09-22 11:00:00 25.5 10 Sudoeste 16 Sudoeste 0 -- -- 68
2019-09-22 10:00:00 24.2 5 Oeste 12 Sudoeste 0 -- -- 72
2019-09-22 09:00:00 22.4 5 Oeste 9 Oeste 0 -- -- 80
2019-09-22 08:00:00 21.6 4 Noroeste 8 Noroeste 0 -- -- 84
2019-09-22 07:00:00 21.4 5 Oeste 9 Oeste 0 -- -- 86
2019-09-22 06:00:00 21.4 3 Sudoeste 8 Oeste 0 -- -- 86
2019-09-22 05:00:00 21.6 4 Oeste 8 Oeste 0 -- -- 86
2019-09-22 04:00:00 21.7 5 Oeste 8 Oeste 0 -- -- 85
2019-09-22 03:00:00 21.9 4 Oeste 9 Sudoeste 0 -- -- 84
2019-09-22 02:00:00 22.3 5 Oeste 12 Oeste 0 -- -- 83
2019-09-22 01:00:00 22.6 6 Oeste 12 Oeste 0 -- -- 83
2019-09-22 00:00:00 22.5 5 Sudoeste 10 Sudoeste 0 -- -- 84
2019-09-21 23:00:00 22.5 5 Sudoeste 16 Oeste 0 -- -- 84
2019-09-21 22:00:00 22.8 9 Oeste 15 Sudoeste 0 -- -- 83
2019-09-21 21:00:00 23.3 12 Sudoeste 18 Sudoeste 0 -- -- 80
2019-09-21 20:00:00 24.2 8 Sudoeste 12 Sur 0 -- -- 76
2019-09-21 19:00:00 24.5 6 Sur 17 Sur 0 -- -- 73
2019-09-21 18:00:00 24.9 9 Sudeste 18 Sudeste 0 -- -- 72
2019-09-21 17:00:00 26.7 9 Sudoeste 18 Sur 0 -- -- 64
2019-09-21 16:00:00 26.6 9 Sudoeste 20 Sudoeste 0 -- -- 63
2019-09-21 15:00:00 26.1 12 Sudoeste 21 Oeste 0 -- -- 65
2019-09-21 14:00:00 26 12 Oeste 21 Sudoeste 0 -- -- 67
2019-09-21 13:00:00 25.9 12 Sudoeste 21 Sur 0 -- -- 66
2019-09-21 12:00:00 25.8 10 Sudoeste 20 Sur 0 -- -- 68
2019-09-21 11:00:00 24.3 8 Sudeste 14 Sudeste 0 -- -- 73
2019-09-21 10:00:00 23.6 4 Sudoeste 9 Oeste 0 -- -- 73
2019-09-21 09:00:00 21.7 3 Oeste 6 Noroeste 0 -- -- 78
2019-09-21 08:00:00 20.4 0 Calma 5 Norte 0 -- -- 82
2019-09-21 07:00:00 20.8 4 Noroeste 10 Noroeste 0 -- -- 82
2019-09-21 06:00:00 20.9 3 Noroeste 8 Oeste 0 -- -- 83
2019-09-21 05:00:00 21 5 Oeste 11 Oeste 0 -- -- 81
2019-09-21 04:00:00 21.3 2 Oeste 6 Noroeste 0 -- -- 81
2019-09-21 03:00:00 21.4 2 Sudoeste 8 Oeste 0 -- -- 81
2019-09-21 02:00:00 21.7 5 Oeste 8 Oeste 0 -- -- 82
2019-09-21 01:00:00 21.9 2 Sudoeste 5 Oeste 0 -- -- 81
2019-09-21 00:00:00 22.2 3 Oeste 9 Noroeste 0 -- -- 81
2019-09-20 23:00:00 22.5 8 Oeste 12 Oeste 0 -- -- 80
2019-09-20 22:00:00 22.7 8 Sudoeste 14 Oeste 0 -- -- 79
2019-09-20 21:00:00 23.2 10 Oeste 17 Sudoeste 0 -- -- 76
2019-09-20 20:00:00 24.5 9 Oeste 20 Oeste 0 -- -- 68
2019-09-20 19:00:00 25.5 10 Oeste 23 Sudoeste 0 -- -- 64
2019-09-20 18:00:00 26.7 13 Sudoeste 26 Oeste 0 -- -- 62
2019-09-20 17:00:00 26.5 16 Sudoeste 26 Sudoeste 0 -- -- 64
2019-09-20 16:00:00 27.7 11 Sudoeste 22 Nordeste 0 -- -- 60
2019-09-20 15:00:00 25.5 8 Sudeste 32 Sudeste 0 -- -- 68
2019-09-20 14:00:00 24.5 15 Este 33 Este 0 -- -- 71
2019-09-20 13:00:00 24.2 19 Este 37 Este 0 -- -- 71
2019-09-20 12:00:00 24.6 15 Este 29 Este 0 -- -- 70
2019-09-20 11:00:00 24.3 10 Sudeste 16 Sudeste 0 -- -- 68
2019-09-20 10:00:00 22.7 9 Oeste 16 Oeste 0 -- -- 78
2019-09-20 09:00:00 22.2 6 Sudoeste 9 Sudoeste 0 -- -- 79
2019-09-20 08:00:00 20.3 2 Oeste 8 Noroeste 0 -- -- 82
2019-09-20 07:00:00 20.7 4 Noroeste 8 Noroeste 0 -- -- 83
2019-09-20 06:00:00 21 5 Norte 8 Norte 0 -- -- 87
2019-09-20 05:00:00 21.3 3 Norte 4 Nordeste 0 -- -- 88
2019-09-20 04:00:00 21.3 0 Calma 6 Nordeste 0 -- -- 86
2019-09-20 03:00:00 21.4 0 Calma 15 Oeste 0 -- -- 87
2019-09-20 02:00:00 21.7 4 Sudoeste 9 Noroeste 0 -- -- 86
2019-09-20 01:00:00 21.9 3 Sudoeste 4 Sudoeste 0 -- -- 85
2019-09-20 00:00:00 22.2 3 Sur 9 Oeste 0 -- -- 85
2019-09-19 23:00:00 22.6 6 Oeste 14 Oeste 0 -- -- 83
2019-09-19 22:00:00 23 7 Oeste 14 Oeste 0 -- -- 81
2019-09-19 21:00:00 23.6 8 Oeste 18 Oeste 0 -- -- 77
2019-09-19 20:00:00 24.2 10 Oeste 19 Sudoeste 0 -- -- 73
2019-09-19 19:00:00 25.3 10 Oeste 20 Sudoeste 0 -- -- 69
2019-09-19 18:00:00 26.5 12 Sudoeste 26 Sudoeste 0 -- -- 63
2019-09-19 17:00:00 27.5 15 Sudoeste 29 Sudoeste 0 -- -- 59
2019-09-19 16:00:00 27.5 14 Sudoeste 22 Oeste 0 -- -- 61
2019-09-19 15:00:00 27 8 Oeste 22 Sudoeste 0 -- -- 62
2019-09-19 14:00:00 26.3 14 Sudoeste 24 Sudoeste 0 -- -- 62
2019-09-19 13:00:00 26.3 13 Sudoeste 26 Sudoeste 0 -- -- 65
2019-09-19 12:00:00 25.8 15 Sudoeste 24 Sudoeste 0 -- -- 65
2019-09-19 11:00:00 25 8 Oeste 13 Oeste 0 -- -- 67
2019-09-19 10:00:00 23.7 6 Sudoeste 10 Sudoeste 0 -- -- 72
2019-09-19 09:00:00 22.3 0 Calma 4 Sudoeste 0 -- -- 78
2019-09-19 08:00:00 20.6 2 Norte 6 Norte 0 -- -- 83
2019-09-19 07:00:00 20.8 0 Calma 6 Norte 0 -- -- 85
2019-09-19 06:00:00 21 3 Norte 7 Noroeste 0 -- -- 85
2019-09-19 05:00:00 21.1 5 Oeste 7 Noroeste 0 -- -- 85
2019-09-19 04:00:00 21.7 4 Nordeste 9 Este 0 -- -- 78
2019-09-19 03:00:00 21.7 3 Sudoeste 5 Oeste 0 -- -- 86
2019-09-19 02:00:00 21.7 2 Sudeste 9 Sudoeste 0 -- -- 87
2019-09-19 01:00:00 21.8 5 Sudoeste 9 Oeste 0 -- -- 85
2019-09-19 00:00:00 22.3 6 Oeste 10 Sudoeste 0 -- -- 83